createdAt,value
2023-03-21T00:01:04.355Z,1.23
2023-03-21T00:04:52.394Z,1.23
2023-03-21T00:08:35.777Z,1.58
2023-03-21T00:12:21.029Z,1.65
2023-03-21T00:16:20.301Z,1.38
2023-03-21T00:20:15.194Z,1.27
2023-03-21T00:23:57.054Z,1.83
2023-03-21T00:27:56.843Z,1.17
2023-03-21T00:31:42.991Z,0.93
2023-03-21T00:39:26.697Z,1.08
2023-03-21T00:43:08.493Z,1.20
2023-03-21T00:47:04.520Z,1.60
2023-03-21T00:50:48.734Z,1.50
2023-03-21T00:54:30.651Z,1.10
2023-03-21T00:58:12.823Z,1.92
2023-03-21T01:01:54.780Z,1.85
2023-03-21T01:06:00.820Z,1.70
2023-03-21T01:09:42.662Z,1.53
2023-03-21T01:13:25.866Z,1.55
2023-03-21T01:17:08.349Z,1.35
2023-03-21T01:20:50.200Z,1.40
2023-03-21T01:24:35.584Z,1.10
2023-03-21T01:28:19.695Z,1.38
2023-03-21T01:32:01.804Z,1.60
2023-03-21T01:35:50.335Z,1.13
2023-03-21T01:39:37.071Z,1.45
2023-03-21T01:43:31.430Z,1.55
2023-03-21T01:47:13.242Z,1.30
2023-03-21T01:50:56.612Z,0.90
2023-03-21T01:54:41.339Z,0.90
2023-03-21T01:58:23.958Z,1.27
2023-03-21T02:02:11.429Z,0.85
2023-03-21T02:06:02.864Z,1.67
2023-03-21T02:09:49.463Z,1.30
2023-03-21T02:13:31.249Z,1.60
2023-03-21T02:17:38.359Z,1.85
2023-03-21T02:21:52.604Z,1.27
2023-03-21T02:26:12.757Z,1.23
2023-03-21T02:30:50.832Z,1.52
2023-03-21T02:34:37.226Z,1.35
2023-03-21T02:38:28.238Z,2.38
2023-03-21T02:42:19.062Z,2.25
2023-03-21T02:46:16.923Z,2.20
2023-03-21T02:50:04.941Z,2.63
2023-03-21T02:54:13.003Z,3.17
2023-03-21T02:57:56.369Z,2.38
2023-03-21T03:01:38.492Z,3.20
2023-03-21T03:05:23.808Z,2.60
2023-03-21T03:09:05.549Z,2.28
2023-03-21T03:13:06.618Z,2.90
2023-03-21T03:17:14.479Z,2.85
2023-03-21T03:21:05.744Z,3.20
2023-03-21T03:25:06.990Z,3.22
2023-03-21T03:28:54.293Z,3.40
2023-03-21T03:32:59.589Z,2.92
2023-03-21T03:36:47.712Z,3.70
2023-03-21T03:40:37.227Z,2.58
2023-03-21T03:44:19.463Z,2.53
2023-03-21T03:48:17.530Z,1.92
2023-03-21T03:52:05.435Z,2.60
2023-03-21T03:55:49.103Z,1.55
2023-03-21T03:59:31.108Z,1.38
2023-03-21T04:03:13.522Z,1.40
2023-03-21T04:06:57.966Z,1.00
2023-03-21T04:10:41.506Z,1.00
2023-03-21T04:14:28.712Z,1.35
2023-03-21T04:18:15.232Z,0.90
2023-03-21T04:21:57.015Z,0.75
2023-03-21T04:25:47.582Z,0.90
2023-03-21T04:29:35.963Z,1.13
2023-03-21T04:33:17.823Z,1.08
2023-03-21T04:36:59.679Z,0.95
2023-03-21T04:40:41.529Z,1.10
2023-03-21T04:44:23.341Z,1.50
2023-03-21T04:48:05.576Z,0.93
2023-03-21T04:51:47.614Z,0.50
2023-03-21T04:55:31.722Z,0.52
2023-03-21T04:59:15.693Z,0.60
2023-03-21T05:02:58.671Z,0.90
2023-03-21T05:06:42.449Z,1.30
2023-03-21T05:10:24.249Z,1.20
2023-03-21T05:14:11.585Z,1.58
2023-03-21T05:17:53.612Z,1.80
2023-03-21T05:21:41.963Z,1.73
2023-03-21T05:25:35.470Z,2.10
2023-03-21T05:29:19.359Z,1.88
2023-03-21T05:33:01.241Z,2.15
2023-03-21T05:36:43.087Z,2.63
2023-03-21T05:40:24.892Z,2.15
2023-03-21T05:44:06.721Z,2.70
2023-03-21T05:47:48.642Z,2.78
2023-03-21T05:51:30.463Z,2.67
2023-03-21T05:55:12.244Z,2.55
2023-03-21T05:58:54.141Z,3.30
2023-03-21T06:02:36.004Z,2.60
2023-03-21T06:06:17.855Z,2.60
2023-03-21T06:09:59.653Z,2.55
2023-03-21T06:13:41.440Z,2.58
2023-03-21T06:17:23.389Z,2.67
2023-03-21T06:21:05.439Z,2.97
2023-03-21T06:24:47.404Z,2.33
2023-03-21T06:28:29.263Z,2.13
2023-03-21T06:32:11.063Z,2.80
2023-03-21T06:35:58.088Z,2.25
2023-03-21T06:39:40.223Z,2.30
2023-03-21T06:43:22.089Z,2.97
2023-03-21T06:47:04.113Z,2.47
2023-03-21T06:50:51.631Z,2.60
2023-03-21T06:54:33.490Z,2.55
2023-03-21T06:58:15.341Z,3.58
2023-03-21T07:01:57.265Z,3.17
2023-03-21T07:05:40.011Z,3.58
2023-03-21T07:09:24.655Z,4.25
2023-03-21T07:13:06.796Z,2.60
2023-03-21T07:16:48.662Z,2.65
2023-03-21T07:20:31.082Z,2.33
2023-03-21T07:24:12.872Z,2.83
2023-03-21T07:27:54.683Z,1.77
2023-03-21T07:31:37.232Z,1.95
2023-03-21T07:35:19.220Z,1.90
2023-03-21T07:39:01.144Z,1.38
2023-03-21T07:42:43.015Z,1.77
2023-03-21T07:46:25.043Z,1.42
2023-03-21T07:50:07.113Z,1.30
2023-03-21T07:53:49.511Z,1.17
2023-03-21T07:57:31.509Z,1.80
2023-03-21T08:01:13.553Z,1.30
2023-03-21T08:04:55.331Z,1.20
2023-03-21T08:08:37.444Z,1.00
2023-03-21T08:12:19.268Z,1.83
2023-03-21T08:16:01.198Z,1.33
2023-03-21T08:19:43.318Z,1.38
2023-03-21T08:23:26.041Z,1.60
2023-03-21T08:27:08.024Z,2.45
2023-03-21T08:30:50.850Z,1.80
2023-03-21T08:34:32.788Z,2.35
2023-03-21T08:38:14.637Z,1.63
2023-03-21T08:41:56.480Z,2.05
2023-03-21T08:45:38.538Z,2.00
2023-03-21T08:49:20.486Z,1.45
2023-03-21T08:53:02.418Z,2.20
2023-03-21T08:56:44.230Z,2.40
2023-03-21T09:00:26.229Z,2.03
2023-03-21T09:04:10.902Z,1.85
2023-03-21T09:07:53.328Z,1.50
2023-03-21T09:11:35.427Z,1.23
2023-03-21T09:15:20.227Z,1.40
2023-03-21T09:19:03.417Z,1.67
2023-03-21T09:22:47.712Z,0.90
2023-03-21T09:26:29.630Z,0.82
2023-03-21T09:30:13.644Z,0.98
2023-03-21T09:33:56.452Z,1.00
2023-03-21T09:37:42.376Z,0.80
2023-03-21T09:41:27.664Z,1.52
2023-03-21T09:45:35.580Z,1.10
2023-03-21T09:49:35.546Z,1.30
2023-03-21T09:53:29.215Z,1.15
2023-03-21T09:57:43.233Z,1.30
2023-03-21T10:01:41.703Z,1.08
2023-03-21T10:05:25.820Z,0.75
2023-03-21T10:09:23.007Z,1.08
2023-03-21T10:13:14.000Z,0.77
2023-03-21T10:17:26.667Z,0.82
2023-03-21T10:21:12.083Z,1.00
2023-03-21T10:24:54.105Z,0.80
2023-03-21T10:28:52.546Z,0.90
2023-03-21T10:32:37.692Z,1.05
2023-03-21T10:36:25.917Z,0.93
2023-03-21T10:40:15.448Z,1.10
2023-03-21T10:44:08.370Z,0.73
2023-03-21T10:47:51.886Z,0.70
2023-03-21T10:51:36.907Z,0.40
2023-03-21T10:55:40.980Z,0.50
2023-03-21T10:59:26.692Z,0.57
2023-03-21T11:03:23.017Z,0.55
2023-03-21T11:07:09.667Z,0.60
2023-03-21T11:11:02.273Z,0.52
2023-03-21T11:14:46.726Z,0.77
2023-03-21T11:18:34.742Z,1.10
2023-03-21T11:22:20.563Z,0.90
2023-03-21T11:26:08.483Z,1.10
2023-03-21T11:29:52.177Z,1.10
2023-03-21T11:33:40.633Z,0.57
2023-03-21T11:37:26.240Z,0.60
2023-03-21T11:41:08.521Z,0.90
2023-03-21T11:44:57.370Z,0.20
2023-03-21T11:48:42.899Z,0.32
2023-03-21T11:52:47.814Z,0.63
2023-03-21T11:56:46.733Z,0.30
2023-03-21T12:00:48.470Z,0.63
2023-03-21T12:04:44.646Z,0.45
2023-03-21T12:08:46.900Z,0.63
2023-03-21T12:12:41.199Z,0.52
2023-03-21T12:16:25.926Z,0.60
2023-03-21T12:20:31.197Z,0.35
2023-03-21T12:24:51.746Z,0.60
2023-03-21T12:28:42.582Z,0.47
2023-03-21T12:32:49.696Z,0.55
2023-03-21T12:37:00.854Z,0.55
2023-03-21T12:40:58.467Z,0.80
2023-03-21T12:44:45.953Z,0.93
2023-03-21T12:48:52.712Z,0.77
2023-03-21T12:52:39.364Z,0.60
2023-03-21T12:56:27.457Z,0.70
2023-03-21T13:00:15.975Z,0.80
2023-03-21T13:04:21.536Z,1.08
2023-03-21T13:08:16.267Z,0.73
2023-03-21T13:12:06.377Z,0.95
2023-03-21T13:16:06.431Z,0.85
2023-03-21T13:20:01.611Z,1.00
2023-03-21T13:23:59.585Z,0.98
2023-03-21T13:27:42.721Z,0.65
2023-03-21T13:31:30.461Z,0.73
2023-03-21T13:35:33.395Z,0.85
2023-03-21T13:39:27.538Z,0.52
2023-03-21T13:43:51.688Z,1.15
2023-03-21T13:47:53.819Z,0.88
2023-03-21T13:51:53.122Z,0.70
2023-03-21T13:55:44.663Z,1.08
2023-03-21T13:59:42.102Z,0.60
2023-03-21T14:03:24.711Z,0.90
2023-03-21T14:07:28.528Z,1.35
2023-03-21T14:11:15.091Z,1.23
2023-03-21T14:15:15.835Z,1.30
2023-03-21T14:19:02.016Z,1.25
2023-03-21T14:22:47.511Z,1.65
2023-03-21T14:26:34.856Z,1.83
2023-03-21T14:30:26.985Z,1.77
2023-03-21T14:34:10.497Z,1.48
2023-03-21T14:37:52.318Z,1.60
2023-03-21T14:41:43.326Z,2.15
2023-03-21T14:45:28.672Z,1.70
2023-03-21T14:49:31.718Z,1.35
2023-03-21T14:53:27.141Z,1.50
2023-03-21T14:57:13.400Z,1.70
2023-03-21T15:00:58.784Z,1.50
2023-03-21T15:04:41.215Z,1.45
2023-03-21T15:08:27.812Z,1.92
2023-03-21T15:12:11.276Z,1.65
2023-03-21T15:15:55.342Z,2.17
2023-03-21T15:19:40.195Z,1.60
2023-03-21T15:23:48.811Z,1.88
2023-03-21T15:27:34.346Z,1.55
2023-03-21T15:31:19.730Z,1.70
2023-03-21T15:35:13.317Z,2.00
2023-03-21T15:38:55.881Z,2.10
2023-03-21T15:42:39.737Z,2.13
2023-03-21T15:46:46.266Z,1.80
2023-03-21T15:50:36.247Z,2.08
2023-03-21T15:54:32.119Z,1.98
2023-03-21T15:58:23.978Z,1.80
2023-03-21T16:02:15.073Z,2.50
2023-03-21T16:06:03.929Z,1.98
2023-03-21T16:09:47.822Z,2.00
2023-03-21T16:13:29.595Z,1.70
2023-03-21T16:17:39.565Z,2.20
2023-03-21T16:21:25.011Z,2.22
2023-03-21T16:25:07.182Z,2.00
2023-03-21T16:28:49.865Z,1.92
2023-03-21T16:32:31.745Z,2.63
2023-03-21T16:36:19.747Z,2.20
2023-03-21T16:40:01.814Z,2.40
2023-03-21T16:43:44.656Z,2.00
2023-03-21T16:47:26.500Z,2.00
2023-03-21T16:51:13.986Z,1.80
2023-03-21T16:54:55.913Z,1.90
2023-03-21T16:58:37.739Z,1.88
2023-03-21T17:02:19.577Z,2.08
2023-03-21T17:06:01.748Z,1.50
2023-03-21T17:09:43.865Z,1.67
2023-03-21T17:13:25.897Z,1.90
2023-03-21T17:17:14.860Z,1.95
2023-03-21T17:20:56.668Z,2.35
2023-03-21T17:24:38.534Z,1.85
2023-03-21T17:28:20.384Z,2.92
2023-03-21T17:32:02.246Z,2.13
2023-03-21T17:35:44.085Z,2.72
2023-03-21T17:39:28.712Z,2.35
2023-03-21T17:43:16.857Z,3.67
2023-03-21T17:46:58.693Z,3.08
2023-03-21T17:50:40.998Z,3.28
2023-03-21T17:54:23.087Z,5.93
2023-03-21T17:58:06.218Z,2.55
2023-03-21T18:01:48.263Z,2.75
2023-03-21T18:05:30.097Z,3.22
2023-03-21T18:09:12.540Z,2.78
2023-03-21T18:12:58.348Z,3.28
2023-03-21T18:16:40.384Z,3.17
2023-03-21T18:20:44.617Z,3.65
2023-03-21T18:28:12.505Z,3.00
2023-03-21T18:32:05.950Z,2.45
2023-03-21T18:35:55.896Z,3.05
2023-03-21T18:39:40.854Z,3.60
2023-03-21T18:47:24.556Z,2.60
2023-03-21T18:51:06.482Z,2.53
2023-03-21T18:54:49.236Z,2.78
2023-03-21T18:58:31.137Z,2.58
2023-03-21T19:02:15.518Z,1.98
2023-03-21T19:06:00.867Z,2.40
2023-03-21T19:10:05.181Z,2.45
2023-03-21T19:13:44.634Z,1.83
2023-03-21T19:18:20.681Z,1.80
2023-03-21T19:21:29.198Z,2.50
2023-03-21T19:25:13.095Z,2.47
2023-03-21T19:28:56.235Z,2.55
2023-03-21T19:32:38.126Z,2.13
2023-03-21T19:36:22.681Z,2.42
2023-03-21T19:40:06.969Z,2.92
2023-03-21T19:43:54.659Z,2.83
2023-03-21T19:47:38.186Z,2.85
2023-03-21T19:51:28.271Z,2.72
2023-03-21T19:55:11.544Z,3.22
2023-03-21T19:58:53.766Z,3.03
2023-03-21T20:02:36.961Z,2.30
2023-03-21T20:06:19.577Z,2.72
2023-03-21T20:10:01.916Z,2.92
2023-03-21T20:13:46.199Z,2.63
2023-03-21T20:17:28.116Z,3.67
2023-03-21T20:21:17.510Z,3.15
2023-03-21T20:25:04.839Z,2.45
2023-03-21T20:28:56.515Z,2.25
2023-03-21T20:32:49.837Z,2.78
2023-03-21T20:36:40.232Z,2.35
2023-03-21T20:40:22.984Z,2.53
2023-03-21T20:48:07.172Z,2.90
2023-03-21T20:55:53.667Z,3.08
2023-03-21T20:59:35.473Z,2.78
2023-03-21T21:03:17.499Z,3.13
2023-03-21T21:06:59.293Z,3.42
2023-03-21T21:11:02.746Z,3.78
2023-03-21T21:14:44.090Z,2.10
2023-03-21T21:18:26.039Z,2.28
2023-03-21T21:22:07.891Z,2.83
2023-03-21T21:25:53.923Z,2.28
2023-03-21T21:29:35.821Z,3.05
2023-03-21T21:33:23.838Z,2.42
2023-03-21T21:37:05.662Z,3.35
2023-03-21T21:40:48.884Z,3.90
2023-03-21T21:44:31.272Z,3.40
2023-03-21T21:48:13.971Z,2.88
2023-03-21T21:51:56.355Z,3.03
2023-03-21T21:55:38.520Z,3.15
2023-03-21T21:59:22.268Z,2.90
2023-03-21T22:03:04.754Z,4.32
2023-03-21T22:06:47.632Z,3.78
2023-03-21T22:10:32.561Z,3.78
2023-03-21T22:14:14.356Z,4.38
2023-03-21T22:17:56.444Z,3.63
2023-03-21T22:21:38.245Z,4.05
2023-03-21T22:25:20.194Z,3.17
2023-03-21T22:29:02.088Z,3.38
2023-03-21T22:32:46.309Z,2.85
2023-03-21T22:36:30.338Z,3.33
2023-03-21T22:40:15.555Z,3.00
2023-03-21T22:43:57.676Z,2.58
2023-03-21T22:47:39.816Z,4.78
2023-03-21T22:51:21.768Z,3.30
2023-03-21T22:55:03.777Z,3.08
2023-03-21T22:58:45.684Z,4.05
2023-03-21T23:02:27.877Z,3.83
2023-03-21T23:06:09.807Z,2.95
2023-03-21T23:09:51.914Z,3.35
2023-03-21T23:13:33.817Z,3.38
2023-03-21T23:17:16.434Z,3.90
2023-03-21T23:20:58.743Z,2.83
2023-03-21T23:24:40.568Z,3.47
2023-03-21T23:28:22.392Z,3.30
2023-03-21T23:32:04.442Z,2.75
2023-03-21T23:35:46.285Z,3.38
2023-03-21T23:39:28.334Z,3.20
2023-03-21T23:43:10.434Z,3.28
2023-03-21T23:46:52.439Z,3.25
2023-03-21T23:50:34.444Z,3.17
2023-03-21T23:54:16.246Z,3.28
2023-03-21T23:58:00.783Z,2.97
